createdAt,value
2022-08-20T00:01:17.276Z,19.28
2022-08-20T00:03:50.282Z,19.27
2022-08-20T00:06:23.861Z,19.36
2022-08-20T00:08:51.896Z,19.31
2022-08-20T00:11:24.097Z,19.36
2022-08-20T00:13:58.157Z,19.39
2022-08-20T00:16:29.883Z,19.35
2022-08-20T00:18:57.378Z,19.26
2022-08-20T00:21:25.742Z,19.25
2022-08-20T00:23:56.340Z,19.28
2022-08-20T00:26:25.587Z,19.27
2022-08-20T00:28:53.287Z,19.21
2022-08-20T00:31:24.207Z,19.21
2022-08-20T00:33:53.236Z,19.14
2022-08-20T00:36:22.282Z,19.16
2022-08-20T00:39:00.172Z,19.17
2022-08-20T00:41:28.699Z,19.13
2022-08-20T00:44:10.847Z,19.36
2022-08-20T00:46:39.465Z,19.17
2022-08-20T00:49:09.176Z,19.17
2022-08-20T00:51:47.217Z,19.28
2022-08-20T00:54:21.052Z,19.24
2022-08-20T00:56:57.426Z,19.27
2022-08-20T00:59:28.524Z,19.29
2022-08-20T01:01:57.859Z,19.20
2022-08-20T01:04:28.348Z,19.27
2022-08-20T01:06:56.404Z,19.21
2022-08-20T01:09:50.596Z,19.25
2022-08-20T01:12:14.019Z,19.26
2022-08-20T01:14:46.866Z,19.33
2022-08-20T01:17:22.915Z,19.42
2022-08-20T01:19:58.319Z,19.40
2022-08-20T01:22:59.892Z,19.51
2022-08-20T01:25:53.844Z,19.65
2022-08-20T01:28:35.363Z,19.62
2022-08-20T01:31:05.072Z,19.43
2022-08-20T01:33:32.669Z,19.38
2022-08-20T01:36:00.868Z,19.38
2022-08-20T01:38:30.077Z,19.41
2022-08-20T01:41:16.026Z,19.35
2022-08-20T01:43:46.273Z,19.44
2022-08-20T01:46:17.856Z,19.42
2022-08-20T01:48:47.516Z,19.42
2022-08-20T01:51:21.893Z,19.52
2022-08-20T01:53:52.840Z,19.61
2022-08-20T01:56:25.972Z,19.69
2022-08-20T01:58:59.137Z,19.67
2022-08-20T02:01:30.515Z,19.81
2022-08-20T02:03:58.086Z,19.81
2022-08-20T02:06:26.956Z,19.87
2022-08-20T02:08:57.065Z,19.98
2022-08-20T02:11:25.361Z,20.05
2022-08-20T02:13:54.337Z,20.17
2022-08-20T02:16:25.688Z,20.17
2022-08-20T02:18:56.358Z,20.26
2022-08-20T02:21:28.497Z,20.42
2022-08-20T02:23:56.553Z,20.47
2022-08-20T02:26:25.307Z,20.62
2022-08-20T02:28:54.250Z,20.72
2022-08-20T02:31:23.706Z,20.84
2022-08-20T02:34:18.498Z,20.93
2022-08-20T02:36:40.424Z,21.08
2022-08-20T02:39:11.981Z,21.56
2022-08-20T02:41:40.715Z,22.15
2022-08-20T02:44:09.322Z,22.38
2022-08-20T02:46:36.905Z,22.56
2022-08-20T02:49:04.867Z,23.08
2022-08-20T02:51:32.577Z,23.74
2022-08-20T02:54:00.126Z,24.46
2022-08-20T02:56:27.699Z,25.08
2022-08-20T02:58:55.291Z,25.71
2022-08-20T03:01:22.949Z,26.38
2022-08-20T03:03:50.840Z,26.91
2022-08-20T03:06:18.326Z,27.50
2022-08-20T03:08:45.823Z,28.00
2022-08-20T03:11:13.841Z,28.55
2022-08-20T03:13:41.298Z,29.03
2022-08-20T03:16:09.162Z,29.54
2022-08-20T03:18:40.203Z,29.92
2022-08-20T03:21:09.887Z,30.42
2022-08-20T03:23:40.439Z,30.95
2022-08-20T03:26:11.398Z,31.22
2022-08-20T03:28:38.968Z,31.70
2022-08-20T03:31:06.622Z,32.11
2022-08-20T03:33:34.816Z,32.50
2022-08-20T03:36:02.516Z,32.85
2022-08-20T03:38:33.065Z,33.23
2022-08-20T03:41:02.322Z,33.57
2022-08-20T03:43:30.549Z,34.04
2022-08-20T03:45:58.158Z,34.23
2022-08-20T03:48:26.053Z,34.59
2022-08-20T03:50:53.706Z,34.80
2022-08-20T03:53:21.449Z,35.15
2022-08-20T03:55:54.093Z,35.51
2022-08-20T03:58:31.579Z,35.79
2022-08-20T04:01:06.694Z,36.05
2022-08-20T04:03:34.886Z,36.41
2022-08-20T04:06:02.624Z,36.65
2022-08-20T04:08:30.465Z,36.93
2022-08-20T04:10:59.910Z,37.19
2022-08-20T04:13:30.500Z,37.28
2022-08-20T04:15:58.584Z,37.56
2022-08-20T04:18:26.747Z,37.87
2022-08-20T04:20:55.164Z,38.18
2022-08-20T04:23:23.306Z,38.43
2022-08-20T04:25:50.983Z,38.05
2022-08-20T04:28:27.178Z,37.87
2022-08-20T04:30:57.138Z,38.03
2022-08-20T04:33:33.802Z,37.67
2022-08-20T04:36:06.409Z,38.19
2022-08-20T04:38:48.170Z,38.06
2022-08-20T04:41:22.592Z,38.53
2022-08-20T04:43:52.289Z,38.91
2022-08-20T04:46:21.016Z,39.32
2022-08-20T04:48:50.397Z,38.84
2022-08-20T04:51:18.929Z,38.71
2022-08-20T04:53:53.612Z,39.07
2022-08-20T04:56:26.155Z,39.48
2022-08-20T04:58:57.524Z,39.71
2022-08-20T05:01:26.494Z,40.14
2022-08-20T05:03:55.139Z,40.38
2022-08-20T05:06:26.633Z,40.62
2022-08-20T05:08:56.142Z,40.89
2022-08-20T05:11:35.966Z,41.22
2022-08-20T05:14:09.351Z,41.39
2022-08-20T05:16:39.602Z,41.85
2022-08-20T05:19:11.227Z,42.11
2022-08-20T05:21:39.526Z,42.35
2022-08-20T05:24:07.920Z,42.71
2022-08-20T05:26:35.610Z,42.91
2022-08-20T05:29:05.549Z,43.08
2022-08-20T05:31:35.108Z,43.25
2022-08-20T05:34:11.807Z,43.35
2022-08-20T05:36:41.968Z,43.47
2022-08-20T05:39:10.608Z,43.73
2022-08-20T05:41:39.290Z,43.72
2022-08-20T05:44:14.424Z,44.00
2022-08-20T05:46:44.594Z,44.27
2022-08-20T05:49:22.040Z,44.18
2022-08-20T05:51:51.590Z,43.73
2022-08-20T05:54:19.057Z,43.36
2022-08-20T05:56:46.602Z,42.98
2022-08-20T05:59:14.362Z,42.78
2022-08-20T06:01:43.159Z,42.23
2022-08-20T06:04:31.368Z,42.52
2022-08-20T06:07:04.896Z,41.92
2022-08-20T06:09:33.736Z,41.87
2022-08-20T06:12:08.651Z,41.69
2022-08-20T06:14:36.510Z,41.41
2022-08-20T06:17:09.942Z,41.38
2022-08-20T06:19:40.121Z,41.68
2022-08-20T06:22:19.469Z,42.17
2022-08-20T06:24:49.525Z,42.49
2022-08-20T06:27:17.613Z,42.84
2022-08-20T06:29:45.241Z,43.20
2022-08-20T06:32:12.942Z,43.17
2022-08-20T06:34:50.004Z,42.97
2022-08-20T06:37:31.009Z,43.17
2022-08-20T06:40:15.296Z,43.24
2022-08-20T06:42:48.757Z,43.80
2022-08-20T06:45:25.218Z,43.91
2022-08-20T06:47:56.148Z,44.30
2022-08-20T06:50:45.885Z,44.15
2022-08-20T06:53:16.629Z,43.70
2022-08-20T06:55:48.873Z,44.76
2022-08-20T06:58:36.584Z,44.96
2022-08-20T07:01:09.716Z,45.29
2022-08-20T07:03:54.537Z,44.74
2022-08-20T07:06:27.197Z,44.07
2022-08-20T07:08:56.171Z,43.57
2022-08-20T07:11:28.038Z,42.87
2022-08-20T07:13:58.497Z,42.30
2022-08-20T07:16:26.639Z,41.65
2022-08-20T07:18:54.092Z,41.20
2022-08-20T07:21:21.592Z,41.04
2022-08-20T07:23:49.649Z,40.70
2022-08-20T07:26:18.103Z,40.44
2022-08-20T07:28:45.996Z,40.19
2022-08-20T07:31:32.449Z,39.81
2022-08-20T07:34:03.430Z,39.50
2022-08-20T07:36:31.384Z,39.33
2022-08-20T07:38:59.052Z,39.31
2022-08-20T07:41:33.640Z,39.24
2022-08-20T07:44:01.307Z,39.12
2022-08-20T07:46:31.294Z,38.89
2022-08-20T07:48:59.454Z,38.76
2022-08-20T07:51:27.882Z,38.68
2022-08-20T07:53:55.367Z,38.59
2022-08-20T07:56:24.635Z,38.57
2022-08-20T07:58:55.823Z,38.49
2022-08-20T08:01:28.793Z,38.47
2022-08-20T08:03:57.944Z,38.32
2022-08-20T08:06:29.067Z,38.29
2022-08-20T08:09:03.358Z,38.23
2022-08-20T08:11:33.804Z,38.17
2022-08-20T08:14:02.311Z,38.11
2022-08-20T08:16:31.298Z,38.09
2022-08-20T08:19:00.298Z,38.10
2022-08-20T08:21:28.781Z,38.08
2022-08-20T08:23:56.459Z,38.08
2022-08-20T08:26:24.116Z,37.97
2022-08-20T08:28:51.744Z,37.98
2022-08-20T08:31:19.313Z,37.94
2022-08-20T08:33:46.806Z,37.91
2022-08-20T08:36:16.302Z,37.94
2022-08-20T08:38:45.528Z,37.96
2022-08-20T08:41:22.243Z,37.91
2022-08-20T08:43:53.624Z,37.94
2022-08-20T08:46:26.461Z,38.01
2022-08-20T08:49:01.915Z,37.85
2022-08-20T08:51:56.676Z,38.10
2022-08-20T08:54:27.777Z,37.57
2022-08-20T08:56:55.455Z,37.28
2022-08-20T08:59:23.834Z,37.14
2022-08-20T09:01:59.191Z,37.28
2022-08-20T09:04:35.295Z,37.19
2022-08-20T09:07:05.049Z,36.85
2022-08-20T09:09:38.003Z,36.84
2022-08-20T09:12:14.741Z,36.86
2022-08-20T09:14:42.234Z,36.52
2022-08-20T09:17:12.627Z,36.31
2022-08-20T09:19:40.449Z,36.17
2022-08-20T09:22:09.985Z,36.07
2022-08-20T09:24:37.824Z,36.04
2022-08-20T09:27:05.603Z,35.89
2022-08-20T09:29:33.567Z,35.81
2022-08-20T09:32:10.572Z,35.87
2022-08-20T09:34:39.762Z,35.65
2022-08-20T09:37:07.685Z,35.54
2022-08-20T09:39:35.674Z,35.48
2022-08-20T09:42:13.960Z,35.63
2022-08-20T09:44:42.055Z,35.36
2022-08-20T09:47:10.194Z,35.29
2022-08-20T09:49:37.892Z,35.11
2022-08-20T09:52:08.116Z,35.16
2022-08-20T09:54:37.962Z,35.09
2022-08-20T09:57:08.680Z,35.10
2022-08-20T09:59:37.298Z,34.94
2022-08-20T10:02:05.433Z,34.81
2022-08-20T10:04:32.897Z,34.74
2022-08-20T10:07:00.559Z,34.66
2022-08-20T10:09:28.087Z,34.47
2022-08-20T10:11:55.597Z,34.30
2022-08-20T10:14:23.060Z,34.27
2022-08-20T10:16:59.323Z,34.39
2022-08-20T10:19:30.456Z,34.17
2022-08-20T10:21:59.208Z,34.13
2022-08-20T10:24:27.702Z,34.13
2022-08-20T10:26:58.889Z,34.12
2022-08-20T10:29:28.033Z,34.00
2022-08-20T10:31:57.291Z,33.83
2022-08-20T10:34:26.038Z,33.74
2022-08-20T10:36:53.734Z,33.61
2022-08-20T10:39:21.599Z,33.45
2022-08-20T10:41:49.033Z,33.36
2022-08-20T10:44:18.016Z,33.27
2022-08-20T10:46:46.100Z,33.22
2022-08-20T10:49:13.600Z,33.13
2022-08-20T10:51:41.135Z,33.09
2022-08-20T10:54:12.523Z,33.01
2022-08-20T10:56:40.720Z,32.88
2022-08-20T10:59:08.794Z,32.74
2022-08-20T11:01:36.954Z,32.62
2022-08-20T11:04:05.303Z,32.53
2022-08-20T11:06:32.718Z,32.43
2022-08-20T11:09:00.157Z,32.31
2022-08-20T11:11:27.679Z,32.22
2022-08-20T11:13:55.271Z,32.15
2022-08-20T11:16:23.968Z,32.07
2022-08-20T11:18:51.456Z,31.93
2022-08-20T11:21:18.908Z,31.83
2022-08-20T11:23:46.637Z,31.71
2022-08-20T11:26:23.724Z,31.81
2022-08-20T11:28:51.676Z,31.51
2022-08-20T11:31:19.221Z,31.33
2022-08-20T11:33:46.625Z,31.24
2022-08-20T11:36:14.210Z,31.12
2022-08-20T11:38:41.743Z,30.92
2022-08-20T11:41:09.190Z,30.81
2022-08-20T11:43:36.680Z,30.72
2022-08-20T11:46:04.283Z,30.50
2022-08-20T11:48:31.731Z,30.48
2022-08-20T11:50:59.211Z,30.50
2022-08-20T11:53:26.736Z,30.43
2022-08-20T11:55:54.267Z,30.36
2022-08-20T11:58:21.794Z,30.31
2022-08-20T12:00:49.610Z,30.26
2022-08-20T12:03:17.203Z,30.04
2022-08-20T12:05:46.139Z,29.94
2022-08-20T12:08:26.772Z,29.86
2022-08-20T12:10:59.951Z,29.83
2022-08-20T12:13:30.692Z,29.62
2022-08-20T12:16:15.705Z,29.48
2022-08-20T12:18:43.265Z,29.37
2022-08-20T12:21:11.070Z,29.33
2022-08-20T12:23:38.574Z,29.28
2022-08-20T12:26:06.387Z,29.29
2022-08-20T12:28:34.122Z,29.25
2022-08-20T12:31:01.543Z,29.26
2022-08-20T12:33:28.978Z,29.27
2022-08-20T12:35:58.126Z,29.29
2022-08-20T12:38:25.812Z,29.23
2022-08-20T12:40:53.312Z,29.20
2022-08-20T12:43:24.822Z,29.11
2022-08-20T12:45:52.769Z,29.01
2022-08-20T12:48:21.312Z,28.89
2022-08-20T12:50:50.432Z,28.79
2022-08-20T12:53:18.047Z,28.68
2022-08-20T12:55:46.651Z,28.60
2022-08-20T12:58:14.171Z,28.52
2022-08-20T13:00:47.277Z,28.56
2022-08-20T13:03:18.718Z,28.37
2022-08-20T13:05:46.201Z,28.29
2022-08-20T13:08:13.901Z,28.16
2022-08-20T13:10:44.630Z,28.12
2022-08-20T13:13:14.327Z,27.95
2022-08-20T13:15:42.279Z,27.90
2022-08-20T13:18:09.848Z,27.76
2022-08-20T13:20:37.788Z,27.72
2022-08-20T13:23:05.686Z,27.65
2022-08-20T13:25:34.172Z,27.64
2022-08-20T13:28:04.698Z,27.58
2022-08-20T13:30:35.135Z,27.56
2022-08-20T13:33:02.912Z,27.45
2022-08-20T13:35:30.844Z,27.41
2022-08-20T13:37:58.312Z,27.39
2022-08-20T13:40:26.467Z,27.38
2022-08-20T13:42:54.418Z,27.40
2022-08-20T13:45:21.912Z,27.43
2022-08-20T13:47:53.879Z,27.56
2022-08-20T13:50:24.718Z,27.48
2022-08-20T13:52:52.264Z,27.43
2022-08-20T13:55:25.657Z,27.44
2022-08-20T13:57:53.612Z,27.40
2022-08-20T14:00:31.496Z,27.67
2022-08-20T14:03:05.560Z,27.52
2022-08-20T14:05:34.020Z,27.38
2022-08-20T14:08:12.200Z,27.56
2022-08-20T14:10:42.634Z,27.35
2022-08-20T14:13:15.443Z,27.26
2022-08-20T14:15:44.440Z,27.21
2022-08-20T14:18:12.916Z,27.20
2022-08-20T14:20:40.589Z,27.13
2022-08-20T14:23:08.703Z,27.12
2022-08-20T14:25:36.649Z,27.08
2022-08-20T14:28:18.170Z,27.26
2022-08-20T14:30:47.840Z,27.00
2022-08-20T14:33:22.158Z,26.91
2022-08-20T14:35:49.999Z,26.88
2022-08-20T14:38:17.610Z,26.80
2022-08-20T14:40:45.252Z,26.70
2022-08-20T14:43:12.701Z,26.66
2022-08-20T14:45:40.195Z,26.50
2022-08-20T14:48:09.400Z,26.46
2022-08-20T14:50:38.306Z,26.36
2022-08-20T14:53:05.903Z,26.31
2022-08-20T14:55:37.589Z,26.27
2022-08-20T14:58:10.564Z,26.21
2022-08-20T15:00:38.511Z,25.99
2022-08-20T15:03:06.087Z,25.90
2022-08-20T15:05:33.903Z,25.81
2022-08-20T15:08:01.458Z,25.71
2022-08-20T15:10:32.227Z,25.71
2022-08-20T15:13:00.654Z,25.61
2022-08-20T15:15:28.895Z,25.50
2022-08-20T15:17:58.630Z,25.51
2022-08-20T15:20:29.329Z,25.50
2022-08-20T15:22:57.287Z,25.36
2022-08-20T15:25:26.934Z,25.38
2022-08-20T15:28:01.587Z,25.41
2022-08-20T15:30:31.484Z,25.25
2022-08-20T15:32:59.689Z,25.16
2022-08-20T15:35:28.588Z,25.11
2022-08-20T15:37:58.297Z,25.06
2022-08-20T15:40:29.107Z,25.03
2022-08-20T15:42:58.539Z,24.96
2022-08-20T15:45:27.127Z,24.88
2022-08-20T15:48:10.751Z,25.04
2022-08-20T15:51:03.384Z,25.14
2022-08-20T15:53:36.360Z,24.90
2022-08-20T15:56:44.253Z,25.12
2022-08-20T15:59:26.990Z,24.88
2022-08-20T16:02:09.609Z,24.74
2022-08-20T16:04:58.722Z,25.05
2022-08-20T16:07:50.136Z,24.90
2022-08-20T16:10:26.849Z,24.80
2022-08-20T16:12:59.211Z,24.63
2022-08-20T16:15:34.354Z,24.68
2022-08-20T16:18:09.310Z,24.65
2022-08-20T16:20:43.305Z,24.57
2022-08-20T16:23:22.716Z,24.57
2022-08-20T16:26:09.334Z,24.69
2022-08-20T16:28:49.608Z,24.60
2022-08-20T16:31:21.196Z,24.49
2022-08-20T16:34:04.624Z,24.66
2022-08-20T16:36:42.514Z,24.42
2022-08-20T16:39:28.437Z,24.69
2022-08-20T16:41:56.561Z,24.30
2022-08-20T16:44:36.219Z,24.54
2022-08-20T16:47:21.180Z,24.54
2022-08-20T16:50:15.740Z,24.55
2022-08-20T16:52:45.671Z,24.23
2022-08-20T16:55:14.813Z,24.17
2022-08-20T16:57:42.261Z,24.03
2022-08-20T17:00:13.091Z,24.19
2022-08-20T17:03:06.993Z,24.32
2022-08-20T17:05:47.763Z,24.24
2022-08-20T17:08:31.695Z,24.22
2022-08-20T17:11:14.949Z,24.23
2022-08-20T17:13:44.967Z,23.95
2022-08-20T17:16:15.493Z,24.00
2022-08-20T17:18:45.935Z,23.91
2022-08-20T17:21:23.745Z,23.93
2022-08-20T17:24:16.935Z,23.91
2022-08-20T17:26:49.144Z,24.04
2022-08-20T17:29:24.148Z,24.03
2022-08-20T17:32:01.126Z,24.06
2022-08-20T17:34:32.577Z,23.86
2022-08-20T17:37:08.971Z,23.87
2022-08-20T17:39:46.441Z,23.93
2022-08-20T17:42:26.489Z,23.93
2022-08-20T17:45:08.465Z,23.91
2022-08-20T17:47:40.336Z,23.78
2022-08-20T17:50:16.812Z,23.73
2022-08-20T17:52:51.805Z,23.78
2022-08-20T17:55:20.279Z,23.59
2022-08-20T17:57:53.104Z,23.67
2022-08-20T18:00:25.691Z,23.68
2022-08-20T18:03:20.767Z,23.83
2022-08-20T18:06:01.242Z,23.70
2022-08-20T18:08:37.329Z,24.05
2022-08-20T18:11:32.339Z,23.86
2022-08-20T18:14:24.311Z,23.78
2022-08-20T18:17:24.067Z,23.76
2022-08-20T18:20:25.408Z,23.74
2022-08-20T18:23:05.706Z,23.68
2022-08-20T18:25:37.736Z,23.33
2022-08-20T18:28:37.770Z,23.65
2022-08-20T18:31:09.210Z,23.32
2022-08-20T18:33:43.164Z,23.32
2022-08-20T18:36:30.631Z,23.54
2022-08-20T18:39:07.543Z,23.42
2022-08-20T18:41:41.590Z,23.30
2022-08-20T18:44:15.253Z,23.27
2022-08-20T18:47:01.960Z,23.47
2022-08-20T18:49:35.601Z,23.26
2022-08-20T18:52:26.484Z,23.41
2022-08-20T18:54:57.812Z,23.14
2022-08-20T18:57:40.710Z,23.21
2022-08-20T19:00:14.994Z,23.05
2022-08-20T19:02:54.606Z,23.20
2022-08-20T19:05:38.393Z,23.08
2022-08-20T19:08:08.163Z,22.83
2022-08-20T19:10:56.987Z,23.13
2022-08-20T19:13:42.518Z,22.86
2022-08-20T19:16:34.772Z,22.93
2022-08-20T19:19:02.267Z,22.83
2022-08-20T19:21:42.558Z,22.90
2022-08-20T19:24:14.235Z,22.80
2022-08-20T19:26:56.702Z,22.96
2022-08-20T19:29:29.651Z,22.76
2022-08-20T19:32:02.190Z,22.70
2022-08-20T19:34:31.365Z,22.64
2022-08-20T19:37:27.548Z,22.74
2022-08-20T19:39:54.625Z,22.63
2022-08-20T19:42:29.596Z,22.68
2022-08-20T19:45:01.867Z,22.65
2022-08-20T19:47:54.716Z,22.87
2022-08-20T19:50:29.985Z,22.74
2022-08-20T19:53:17.346Z,22.73
2022-08-20T19:55:45.067Z,22.50
2022-08-20T19:58:26.224Z,22.63
2022-08-20T20:00:55.461Z,22.44
2022-08-20T20:03:29.656Z,22.57
2022-08-20T20:05:58.730Z,22.42
2022-08-20T20:08:36.788Z,22.38
2022-08-20T20:11:06.122Z,22.27
2022-08-20T20:13:37.813Z,22.18
2022-08-20T20:16:08.035Z,22.20
2022-08-20T20:18:42.324Z,22.34
2022-08-20T20:21:26.130Z,22.29
2022-08-20T20:23:58.598Z,22.21
2022-08-20T20:26:31.348Z,22.20
2022-08-20T20:29:16.768Z,22.36
2022-08-20T20:31:53.690Z,22.25
2022-08-20T20:34:36.736Z,22.22
2022-08-20T20:37:50.211Z,22.21
2022-08-20T20:40:28.437Z,22.14
2022-08-20T20:43:04.291Z,21.95
2022-08-20T20:45:39.078Z,21.92
2022-08-20T20:48:18.766Z,22.03
2022-08-20T20:50:47.859Z,21.85
2022-08-20T20:53:32.310Z,22.03
2022-08-20T20:56:31.071Z,22.05
2022-08-20T20:59:02.565Z,21.73
2022-08-20T21:01:49.391Z,21.73
2022-08-20T21:04:23.525Z,21.80
2022-08-20T21:06:53.540Z,21.67
2022-08-20T21:09:22.281Z,21.59
2022-08-20T21:11:50.513Z,21.53
2022-08-20T21:14:18.637Z,21.54
2022-08-20T21:16:46.457Z,21.47
2022-08-20T21:19:15.055Z,21.47
2022-08-20T21:21:43.456Z,21.50
2022-08-20T21:24:11.065Z,21.44
2022-08-20T21:26:39.862Z,21.39
2022-08-20T21:29:09.513Z,21.34
2022-08-20T21:31:43.695Z,21.33
2022-08-20T21:34:15.958Z,21.35
2022-08-20T21:36:44.245Z,21.25
2022-08-20T21:39:12.050Z,21.25
2022-08-20T21:41:42.874Z,21.30
2022-08-20T21:44:25.235Z,21.48
2022-08-20T21:46:54.426Z,21.20
2022-08-20T21:49:23.021Z,21.17
2022-08-20T21:51:51.414Z,21.19
2022-08-20T21:54:19.611Z,21.17
2022-08-20T21:57:17.483Z,21.30
2022-08-20T21:59:45.003Z,21.16
2022-08-20T22:02:13.291Z,21.13
2022-08-20T22:04:41.350Z,21.04
2022-08-20T22:07:09.049Z,20.99
2022-08-20T22:09:38.662Z,21.01
2022-08-20T22:12:18.137Z,21.17
2022-08-20T22:14:46.038Z,20.99
2022-08-20T22:17:14.807Z,20.99
2022-08-20T22:19:42.477Z,20.97
2022-08-20T22:22:11.133Z,20.96
2022-08-20T22:24:39.393Z,20.89
2022-08-20T22:27:07.806Z,20.83
2022-08-20T22:29:35.388Z,20.82
2022-08-20T22:32:03.996Z,20.78
2022-08-20T22:34:34.295Z,20.90
2022-08-20T22:37:03.117Z,20.78
2022-08-20T22:39:30.577Z,20.78
2022-08-20T22:41:58.317Z,20.76
2022-08-20T22:44:25.867Z,20.77
2022-08-20T22:46:56.933Z,20.77
2022-08-20T22:49:28.240Z,20.82
2022-08-20T22:51:56.568Z,20.77
2022-08-20T22:54:25.399Z,20.75
2022-08-20T22:56:54.153Z,20.73
2022-08-20T22:59:22.070Z,20.73
2022-08-20T23:01:51.723Z,20.73
2022-08-20T23:04:34.565Z,20.92
2022-08-20T23:07:04.568Z,20.76
2022-08-20T23:09:32.511Z,20.70
2022-08-20T23:12:00.171Z,20.64
2022-08-20T23:14:27.677Z,20.63
2022-08-20T23:17:14.898Z,20.77
2022-08-20T23:19:43.045Z,20.51
2022-08-20T23:22:11.087Z,20.44
2022-08-20T23:24:38.734Z,20.42
2022-08-20T23:27:07.968Z,20.42
2022-08-20T23:29:35.942Z,20.36
2022-08-20T23:32:03.689Z,20.34
2022-08-20T23:34:31.136Z,20.26
2022-08-20T23:37:01.570Z,20.32
2022-08-20T23:39:31.502Z,20.27
2022-08-20T23:41:59.882Z,20.19
2022-08-20T23:44:28.198Z,20.19
2022-08-20T23:47:02.354Z,20.37
2022-08-20T23:49:30.938Z,20.18
2022-08-20T23:52:00.878Z,20.23
2022-08-20T23:54:30.383Z,20.21
2022-08-20T23:56:58.168Z,20.20
2022-08-20T23:59:26.288Z,20.19
